createdAt,value
2023-07-31T00:01:12.798Z,80.66
2023-07-31T00:03:55.187Z,81.05
2023-07-31T00:06:29.226Z,81.14
2023-07-31T00:09:17.488Z,81.09
2023-07-31T00:11:56.059Z,81.60
2023-07-31T00:14:42.858Z,82.08
2023-07-31T00:17:16.739Z,81.50
2023-07-31T00:20:19.813Z,82.01
2023-07-31T00:22:59.824Z,82.27
2023-07-31T00:25:41.469Z,82.78
2023-07-31T00:31:07.379Z,82.45
2023-07-31T00:34:06.391Z,82.65
2023-07-31T00:36:47.522Z,82.73
2023-07-31T00:42:31.599Z,83.03
2023-07-31T00:45:14.617Z,82.94
2023-07-31T00:48:00.420Z,82.83
2023-07-31T00:53:27.070Z,83.17
2023-07-31T00:56:02.166Z,83.60
2023-07-31T00:58:39.434Z,83.28
2023-07-31T01:01:10.627Z,82.98
2023-07-31T01:03:40.249Z,83.11
2023-07-31T01:06:45.368Z,82.95
2023-07-31T01:09:56.674Z,82.60
2023-07-31T01:12:35.931Z,82.80
2023-07-31T01:15:15.472Z,83.08
2023-07-31T01:17:46.902Z,82.76
2023-07-31T01:20:28.996Z,82.65
2023-07-31T01:23:32.585Z,83.01
2023-07-31T01:26:41.652Z,82.98
2023-07-31T01:29:22.247Z,82.70
2023-07-31T01:32:05.741Z,82.43
2023-07-31T01:34:37.182Z,82.48
2023-07-31T01:37:05.882Z,82.20
2023-07-31T01:39:35.669Z,82.96
2023-07-31T01:42:05.009Z,82.60
2023-07-31T01:44:34.281Z,82.83
2023-07-31T01:47:01.465Z,82.71
2023-07-31T01:49:28.355Z,82.42
2023-07-31T01:51:55.322Z,82.71
2023-07-31T01:54:22.371Z,82.89
2023-07-31T01:56:49.170Z,82.75
2023-07-31T01:59:18.702Z,83.01
2023-07-31T02:01:45.391Z,82.89
2023-07-31T02:04:15.497Z,83.21
2023-07-31T02:06:42.541Z,83.07
2023-07-31T02:09:11.038Z,82.50
2023-07-31T02:11:42.109Z,83.21
2023-07-31T02:14:27.592Z,82.99
2023-07-31T02:17:11.165Z,82.84
2023-07-31T02:19:54.578Z,82.88
2023-07-31T02:22:34.660Z,82.67
2023-07-31T02:25:05.711Z,82.70
2023-07-31T02:27:37.639Z,82.93
2023-07-31T02:30:15.575Z,82.33
2023-07-31T02:32:42.658Z,82.67
2023-07-31T02:35:09.983Z,83.24
2023-07-31T02:37:57.214Z,82.94
2023-07-31T02:40:29.793Z,82.69
2023-07-31T02:43:00.584Z,82.24
2023-07-31T02:45:35.351Z,82.28
2023-07-31T02:48:02.102Z,82.72
2023-07-31T02:50:29.979Z,82.36
2023-07-31T02:52:57.318Z,82.56
2023-07-31T02:55:29.862Z,82.78
2023-07-31T02:57:57.221Z,82.80
2023-07-31T03:00:24.272Z,82.72
2023-07-31T03:03:02.235Z,82.00
2023-07-31T03:05:45.308Z,82.76
2023-07-31T03:08:22.219Z,83.06
2023-07-31T03:10:54.231Z,82.45
2023-07-31T03:13:28.429Z,82.04
2023-07-31T03:16:15.099Z,82.54
2023-07-31T03:18:46.270Z,82.21
2023-07-31T03:21:52.546Z,82.19
2023-07-31T03:24:36.583Z,82.48
2023-07-31T03:27:09.318Z,82.51
2023-07-31T03:29:36.235Z,82.41
2023-07-31T03:32:03.653Z,82.13
2023-07-31T03:34:30.895Z,82.42
2023-07-31T03:37:01.794Z,82.37
2023-07-31T03:39:49.283Z,81.60
2023-07-31T03:42:23.769Z,82.05
2023-07-31T03:44:59.959Z,81.94
2023-07-31T03:47:32.230Z,81.80
2023-07-31T03:50:19.325Z,82.28
2023-07-31T03:52:56.406Z,82.39
2023-07-31T03:55:34.551Z,82.15
2023-07-31T03:58:07.087Z,82.11
2023-07-31T04:00:44.503Z,81.38
2023-07-31T04:03:20.029Z,81.09
2023-07-31T04:05:53.156Z,81.36
2023-07-31T04:08:35.942Z,81.75
2023-07-31T04:11:07.324Z,81.77
2023-07-31T04:19:44.736Z,81.35
2023-07-31T04:22:28.786Z,81.32
2023-07-31T04:25:12.089Z,81.13
2023-07-31T04:27:39.152Z,81.10
2023-07-31T04:33:02.632Z,81.65
2023-07-31T04:35:32.708Z,81.36
2023-07-31T04:37:59.594Z,81.64
2023-07-31T04:40:26.880Z,82.01
2023-07-31T04:42:54.949Z,82.23
2023-07-31T04:45:24.170Z,82.10
2023-07-31T04:47:53.803Z,82.24
2023-07-31T04:50:20.843Z,82.28
2023-07-31T04:52:49.885Z,82.11
2023-07-31T04:55:19.032Z,81.60
2023-07-31T04:57:47.740Z,82.12
2023-07-31T05:00:14.746Z,81.95
2023-07-31T05:02:41.955Z,81.64
2023-07-31T05:05:09.763Z,81.76
2023-07-31T05:07:36.530Z,82.05
2023-07-31T05:10:03.684Z,81.93
2023-07-31T05:12:33.822Z,82.12
2023-07-31T05:15:01.291Z,82.10
2023-07-31T05:17:29.915Z,82.34
2023-07-31T05:19:59.886Z,82.60
2023-07-31T05:22:41.358Z,82.89
2023-07-31T05:25:26.636Z,82.54
2023-07-31T05:28:12.487Z,82.75
2023-07-31T05:30:47.526Z,83.06
2023-07-31T05:33:17.643Z,83.12
2023-07-31T05:35:49.819Z,83.49
2023-07-31T05:38:25.103Z,83.71
2023-07-31T05:43:49.679Z,83.89
2023-07-31T05:47:06.600Z,83.73
2023-07-31T05:52:25.985Z,84.14
2023-07-31T05:54:59.206Z,84.58
2023-07-31T05:57:37.189Z,84.56
2023-07-31T06:03:40.107Z,84.98
2023-07-31T06:06:28.217Z,84.68
2023-07-31T06:09:30.991Z,85.19
2023-07-31T06:12:00.387Z,84.78
2023-07-31T06:30:15.226Z,85.45
2023-07-31T06:33:21.879Z,85.85
2023-07-31T06:35:57.410Z,86.08
2023-07-31T06:38:31.769Z,87.07
2023-07-31T06:41:04.436Z,87.21
2023-07-31T06:43:34.272Z,87.01
2023-07-31T06:46:07.042Z,88.58
2023-07-31T06:48:38.021Z,90.28
2023-07-31T06:51:07.207Z,90.81
2023-07-31T06:54:47.470Z,91.44
2023-07-31T06:57:29.173Z,92.44
2023-07-31T06:59:55.984Z,93.08
2023-07-31T07:02:35.761Z,94.58
2023-07-31T07:08:57.259Z,93.48
2023-07-31T07:11:24.289Z,94.54
2023-07-31T07:13:53.581Z,94.29
2023-07-31T07:16:20.495Z,95.56
2023-07-31T07:20:17.330Z,95.63
2023-07-31T07:22:47.018Z,95.66
2023-07-31T07:25:13.861Z,95.80
2023-07-31T07:27:49.963Z,96.31
2023-07-31T07:30:17.136Z,95.54
2023-07-31T07:32:57.447Z,96.17
2023-07-31T07:35:27.805Z,96.17
2023-07-31T07:37:54.973Z,96.80
2023-07-31T07:40:22.516Z,96.58
2023-07-31T07:42:53.760Z,97.58
2023-07-31T07:45:20.748Z,97.29
2023-07-31T07:47:47.760Z,97.12
2023-07-31T07:50:14.770Z,97.57
2023-07-31T07:52:41.973Z,97.32
2023-07-31T07:55:09.378Z,96.78
2023-07-31T07:57:36.105Z,97.25
2023-07-31T08:00:03.605Z,96.89
2023-07-31T08:02:30.714Z,97.04
2023-07-31T08:04:57.820Z,97.50
2023-07-31T08:07:24.826Z,97.43
2023-07-31T08:09:51.713Z,97.03
2023-07-31T08:12:18.867Z,97.58
2023-07-31T08:14:46.189Z,97.29
2023-07-31T08:17:13.039Z,97.53
2023-07-31T08:19:51.136Z,97.97
2023-07-31T08:22:18.104Z,97.21
2023-07-31T08:24:45.032Z,96.81
2023-07-31T08:27:13.918Z,96.25
2023-07-31T08:29:43.155Z,96.45
2023-07-31T08:32:11.273Z,96.55
2023-07-31T08:34:40.295Z,96.64
2023-07-31T08:37:09.272Z,96.01
2023-07-31T08:39:40.877Z,95.77
2023-07-31T08:42:10.720Z,95.28
2023-07-31T08:44:38.617Z,96.04
2023-07-31T08:47:08.804Z,94.98
2023-07-31T08:49:36.173Z,94.96
2023-07-31T08:52:02.930Z,94.45
2023-07-31T08:54:34.183Z,94.60
2023-07-31T08:57:01.676Z,94.46
2023-07-31T08:59:34.557Z,94.37
2023-07-31T09:02:07.427Z,94.31
2023-07-31T09:04:37.326Z,93.92
2023-07-31T09:07:05.615Z,94.19
2023-07-31T09:09:36.462Z,94.64
2023-07-31T09:16:37.349Z,93.48
2023-07-31T09:20:29.786Z,93.50
2023-07-31T09:23:12.031Z,93.40
2023-07-31T09:27:20.431Z,93.80
2023-07-31T09:30:00.796Z,93.96
2023-07-31T09:32:39.630Z,93.92
2023-07-31T09:35:22.614Z,94.30
2023-07-31T09:38:01.316Z,94.77
2023-07-31T09:40:32.872Z,94.01
2023-07-31T09:43:06.055Z,93.54
2023-07-31T09:45:41.613Z,94.40
2023-07-31T09:48:11.441Z,94.52
2023-07-31T09:50:40.486Z,94.17
2023-07-31T09:53:13.110Z,94.05
2023-07-31T09:55:41.197Z,94.34
2023-07-31T09:58:11.769Z,94.54
2023-07-31T10:00:38.829Z,94.33
2023-07-31T10:03:07.568Z,94.06
2023-07-31T10:05:37.406Z,94.35
2023-07-31T10:08:07.502Z,94.02
2023-07-31T10:10:37.011Z,94.10
2023-07-31T10:13:08.558Z,93.86
2023-07-31T10:19:00.842Z,93.03
2023-07-31T10:21:27.726Z,92.76
2023-07-31T10:24:24.523Z,93.34
2023-07-31T10:26:53.378Z,92.90
2023-07-31T10:29:23.295Z,92.90
2023-07-31T10:31:56.425Z,92.72
2023-07-31T10:34:23.097Z,92.60
2023-07-31T10:37:09.763Z,92.94
2023-07-31T10:39:39.392Z,92.78
2023-07-31T10:42:14.014Z,92.61
2023-07-31T10:44:49.904Z,92.32
2023-07-31T10:47:18.453Z,92.34
2023-07-31T10:49:48.609Z,92.04
2023-07-31T10:52:49.919Z,92.15
2023-07-31T10:55:35.363Z,92.29
2023-07-31T11:02:00.927Z,92.37
2023-07-31T11:04:44.478Z,92.20
2023-07-31T11:07:14.634Z,91.88
2023-07-31T11:09:41.582Z,91.69
2023-07-31T11:12:09.095Z,92.43
2023-07-31T11:14:36.115Z,91.87
2023-07-31T11:17:08.139Z,92.50
2023-07-31T11:19:50.643Z,92.53
2023-07-31T11:30:19.744Z,91.53
2023-07-31T11:33:04.757Z,91.62
2023-07-31T11:35:44.691Z,90.69
2023-07-31T11:38:32.582Z,90.94
2023-07-31T11:41:06.087Z,90.82
2023-07-31T11:43:37.894Z,91.27
2023-07-31T11:46:07.216Z,90.52
2023-07-31T11:48:39.266Z,90.84
2023-07-31T11:51:12.996Z,90.55
2023-07-31T11:53:44.572Z,90.51
2023-07-31T11:56:18.048Z,90.25
2023-07-31T11:58:49.175Z,90.05
2023-07-31T12:01:19.360Z,90.02
2023-07-31T12:03:47.842Z,89.95
2023-07-31T12:06:23.520Z,89.97
2023-07-31T12:08:50.727Z,90.16
2023-07-31T12:11:19.283Z,89.93
2023-07-31T12:13:48.450Z,89.99
2023-07-31T12:16:15.626Z,89.93
2023-07-31T12:18:42.616Z,90.46
2023-07-31T12:21:12.738Z,89.88
2023-07-31T12:23:39.802Z,89.90
2023-07-31T12:26:13.758Z,89.75
2023-07-31T12:28:51.304Z,90.13
2023-07-31T12:31:20.310Z,89.72
2023-07-31T12:33:51.204Z,90.30
2023-07-31T12:36:22.849Z,90.56
2023-07-31T12:38:50.915Z,90.58
2023-07-31T12:41:18.674Z,90.70
2023-07-31T12:43:46.554Z,90.24
2023-07-31T12:46:15.165Z,90.63
2023-07-31T12:48:42.890Z,90.64
2023-07-31T12:51:11.715Z,90.46
2023-07-31T12:53:38.579Z,90.41
2023-07-31T12:56:05.977Z,90.61
2023-07-31T12:58:32.909Z,90.61
2023-07-31T13:01:03.436Z,90.54
2023-07-31T13:03:30.839Z,90.37
2023-07-31T13:05:59.804Z,90.47
2023-07-31T13:08:26.587Z,90.29
2023-07-31T13:10:53.397Z,90.82
2023-07-31T13:13:20.125Z,91.06
2023-07-31T13:15:47.157Z,91.07
2023-07-31T13:18:16.014Z,90.38
2023-07-31T13:20:42.727Z,90.43
2023-07-31T13:23:09.348Z,90.49
2023-07-31T13:25:36.351Z,90.53
2023-07-31T13:28:03.785Z,90.40
2023-07-31T13:30:31.015Z,90.45
2023-07-31T13:32:57.778Z,90.41
2023-07-31T13:35:24.665Z,90.54
2023-07-31T13:37:51.348Z,90.17
2023-07-31T13:40:20.962Z,90.48
2023-07-31T13:42:49.070Z,90.25
2023-07-31T13:45:15.953Z,90.19
2023-07-31T13:47:42.707Z,90.39
2023-07-31T13:50:12.198Z,90.52
2023-07-31T13:52:38.863Z,90.63
2023-07-31T13:55:08.333Z,90.23
2023-07-31T13:57:35.942Z,90.20
2023-07-31T14:00:03.368Z,90.26
2023-07-31T14:02:30.190Z,90.00
2023-07-31T14:04:56.867Z,90.21
2023-07-31T14:07:35.693Z,89.93
2023-07-31T14:10:05.263Z,89.76
2023-07-31T14:12:42.623Z,89.87
2023-07-31T14:15:10.884Z,89.78
2023-07-31T14:17:39.970Z,89.71
2023-07-31T14:20:07.732Z,89.53
2023-07-31T14:22:35.232Z,89.52
2023-07-31T14:25:02.930Z,89.78
2023-07-31T14:27:29.675Z,89.41
2023-07-31T14:29:56.467Z,89.86
2023-07-31T14:33:51.595Z,89.72
2023-07-31T14:35:36.737Z,89.58
2023-07-31T14:38:03.463Z,89.67
2023-07-31T14:40:32.610Z,89.67
2023-07-31T14:43:04.819Z,89.73
2023-07-31T14:45:31.517Z,89.62
2023-07-31T14:47:58.286Z,89.94
2023-07-31T14:50:26.550Z,89.92
2023-07-31T14:53:00.775Z,89.55
2023-07-31T14:55:29.943Z,89.52
2023-07-31T14:57:56.621Z,89.84
2023-07-31T15:00:25.715Z,90.31
2023-07-31T15:02:52.498Z,90.18
2023-07-31T15:05:19.569Z,89.82
2023-07-31T15:07:46.279Z,90.44
2023-07-31T15:10:12.925Z,90.05
2023-07-31T15:12:44.218Z,90.62
2023-07-31T15:15:11.142Z,90.85
2023-07-31T15:17:37.918Z,91.29
2023-07-31T15:20:05.225Z,91.49
2023-07-31T15:22:31.942Z,91.27
2023-07-31T15:25:03.476Z,90.49
2023-07-31T15:27:32.349Z,91.05
2023-07-31T15:30:01.776Z,91.27
2023-07-31T16:00:49.695Z,90.39
2023-07-31T16:03:35.569Z,91.43
2023-07-31T16:06:04.871Z,90.62
2023-07-31T16:08:49.483Z,90.64
2023-07-31T16:11:21.098Z,91.28
2023-07-31T16:14:05.865Z,91.10
2023-07-31T16:16:35.569Z,90.29
2023-07-31T16:19:10.589Z,90.27
2023-07-31T16:25:34.992Z,90.35
2023-07-31T16:28:22.129Z,90.18
2023-07-31T16:31:00.452Z,90.44
2023-07-31T16:33:56.064Z,91.19
2023-07-31T16:36:27.915Z,91.38
2023-07-31T16:38:57.620Z,91.09
2023-07-31T16:41:27.096Z,91.26
2023-07-31T16:44:00.408Z,90.69
2023-07-31T16:46:27.202Z,90.38
2023-07-31T16:49:04.428Z,90.61
2023-07-31T16:51:34.625Z,90.33
2023-07-31T16:54:03.741Z,92.19
2023-07-31T16:56:32.910Z,92.64
2023-07-31T16:59:03.605Z,92.59
2023-07-31T17:01:33.347Z,93.59
2023-07-31T17:04:01.312Z,94.02
2023-07-31T17:06:32.709Z,94.08
2023-07-31T17:08:59.394Z,93.67
2023-07-31T17:11:26.410Z,94.07
2023-07-31T17:13:53.447Z,93.60
2023-07-31T17:16:23.247Z,93.18
2023-07-31T17:18:49.979Z,92.29
2023-07-31T17:21:16.659Z,92.42
2023-07-31T17:23:43.378Z,92.61
2023-07-31T17:26:13.454Z,92.33
2023-07-31T17:28:44.737Z,93.04
2023-07-31T17:31:14.436Z,92.70
2023-07-31T17:33:47.208Z,93.15
2023-07-31T17:36:18.395Z,92.56
2023-07-31T17:38:49.593Z,92.35
2023-07-31T17:41:57.783Z,93.17
2023-07-31T17:48:14.165Z,93.56
2023-07-31T17:51:14.503Z,93.52
2023-07-31T17:54:30.082Z,92.84
2023-07-31T18:00:48.522Z,92.32
2023-07-31T18:03:41.261Z,92.49
2023-07-31T18:06:19.404Z,92.80
2023-07-31T18:09:03.137Z,92.34
2023-07-31T18:11:38.163Z,93.05
2023-07-31T18:25:28.134Z,91.90
2023-07-31T18:32:26.338Z,91.97
2023-07-31T18:34:41.848Z,92.41
2023-07-31T18:37:11.306Z,92.19
2023-07-31T18:40:18.257Z,92.42
2023-07-31T18:55:35.230Z,92.79
2023-07-31T19:16:11.727Z,91.67
2023-07-31T19:18:40.698Z,91.18
2023-07-31T19:21:08.767Z,91.23
2023-07-31T19:23:45.733Z,91.03
2023-07-31T19:26:13.540Z,90.90
2023-07-31T19:28:45.249Z,90.68
2023-07-31T19:31:44.842Z,90.16
2023-07-31T19:34:14.670Z,90.26
2023-07-31T19:36:43.892Z,89.94
2023-07-31T19:40:01.585Z,90.80
2023-07-31T19:42:47.672Z,90.40
2023-07-31T19:46:04.857Z,90.46
2023-07-31T20:00:34.667Z,90.18
2023-07-31T20:03:15.078Z,90.81
2023-07-31T20:05:56.980Z,90.84
2023-07-31T20:08:23.837Z,89.83
2023-07-31T20:10:51.169Z,89.66
2023-07-31T20:13:18.069Z,89.33
2023-07-31T20:20:19.782Z,89.27
2023-07-31T20:26:58.374Z,89.50
2023-07-31T20:29:52.006Z,89.70
2023-07-31T20:32:24.968Z,90.11
2023-07-31T20:34:52.155Z,90.25
2023-07-31T20:37:22.354Z,90.06
2023-07-31T20:39:55.294Z,90.20
2023-07-31T20:42:22.191Z,90.63
2023-07-31T20:44:49.137Z,90.34
2023-07-31T20:47:20.219Z,90.11
2023-07-31T20:49:47.035Z,90.00
2023-07-31T20:52:14.074Z,90.07
2023-07-31T20:54:41.562Z,89.91
2023-07-31T20:57:08.293Z,90.44
2023-07-31T20:59:41.119Z,90.21
2023-07-31T21:02:08.558Z,90.14
2023-07-31T21:04:38.034Z,89.81
2023-07-31T21:07:05.562Z,90.11
2023-07-31T21:09:36.268Z,89.69
2023-07-31T21:12:03.136Z,89.61
2023-07-31T21:14:30.083Z,89.71
2023-07-31T21:16:59.289Z,90.00
2023-07-31T21:19:26.110Z,89.95
2023-07-31T21:21:52.902Z,89.44
2023-07-31T21:24:19.767Z,89.76
2023-07-31T21:26:46.510Z,89.73
2023-07-31T21:29:15.760Z,90.40
2023-07-31T21:31:45.105Z,90.70
2023-07-31T21:34:12.288Z,90.23
2023-07-31T21:36:39.629Z,90.27
2023-07-31T21:39:06.818Z,90.13
2023-07-31T21:41:38.468Z,90.04
2023-07-31T21:44:07.835Z,90.20
2023-07-31T21:46:34.713Z,90.09
2023-07-31T21:49:01.642Z,90.13
2023-07-31T21:51:28.371Z,90.11
2023-07-31T21:53:55.160Z,90.21
2023-07-31T21:56:22.357Z,89.79
2023-07-31T21:58:49.358Z,89.79
2023-07-31T22:01:18.494Z,90.05
2023-07-31T22:03:45.365Z,90.25
2023-07-31T22:06:12.301Z,89.70
2023-07-31T22:08:39.262Z,89.64
2023-07-31T22:11:06.028Z,89.83
2023-07-31T22:13:35.180Z,89.87
2023-07-31T22:16:02.550Z,89.93
2023-07-31T22:18:31.846Z,90.14
2023-07-31T22:20:58.492Z,89.99
2023-07-31T22:23:25.305Z,89.77
2023-07-31T22:25:52.548Z,89.97
2023-07-31T22:28:22.002Z,90.03
2023-07-31T22:30:49.507Z,90.13
2023-07-31T22:33:16.425Z,89.95
2023-07-31T22:35:43.318Z,90.31
2023-07-31T22:38:10.145Z,90.30
2023-07-31T22:40:39.098Z,90.23
2023-07-31T22:43:06.067Z,90.33
2023-07-31T22:45:32.889Z,90.26
2023-07-31T22:48:02.091Z,90.17
2023-07-31T22:50:29.066Z,90.04
2023-07-31T22:52:56.659Z,89.85
2023-07-31T22:55:23.352Z,91.26
2023-07-31T22:57:53.884Z,91.32
2023-07-31T23:00:20.584Z,91.44
2023-07-31T23:02:47.676Z,91.57
2023-07-31T23:05:16.938Z,91.53
2023-07-31T23:07:43.863Z,91.62
2023-07-31T23:10:15.316Z,91.84
2023-07-31T23:12:44.446Z,92.05
2023-07-31T23:15:13.567Z,90.95
2023-07-31T23:17:42.996Z,90.93
2023-07-31T23:20:10.306Z,90.73
2023-07-31T23:22:38.712Z,90.90
2023-07-31T23:25:05.959Z,90.42
2023-07-31T23:27:32.969Z,90.45
2023-07-31T23:29:59.986Z,90.54
2023-07-31T23:32:26.936Z,90.35
2023-07-31T23:34:53.890Z,90.24
2023-07-31T23:37:20.891Z,90.35
2023-07-31T23:39:47.741Z,90.62
2023-07-31T23:42:14.908Z,90.52
2023-07-31T23:44:42.270Z,90.61
2023-07-31T23:47:09.305Z,90.61
2023-07-31T23:49:36.034Z,90.45
2023-07-31T23:52:02.871Z,90.58
2023-07-31T23:54:29.973Z,90.45
2023-07-31T23:56:56.905Z,90.59
2023-07-31T23:59:23.919Z,90.25
